Aeroporto :
LOGIN :

Iscrizione | Disclaimer

   EN    FR    IT 

 










Sommario :    VFR   VFR Marginale   IFR   IFR Intensivo   IFR Molto Intensivo
Visibilità : 
Base nubi : 
>= 8 km
>= 3000ft
5 / 8 km
1000 / 3000 ft
1500m / 5 km
500 / 1000 ft
800 / 1500m
200 / 500 ft
< 800m
< 200 ft
Simboli :   Temporali  Nebbia  Neve Forte  Precipitazioni Forti  Vento > 20 kt
SIGMETs :   Varie  Temporali  Ghiacco  Turbolenza  Onda orograficha  Ceneri Vulcaniche






- Altitudine del aeroporto : 18 ft
- Codice IATA : KVA


LGKV - Megas Alexandros

METARs OBSOLETI :
  • 031750Z 00000KT 9999 FEW025 10/05 Q1016

TAF TAF LGKV
Valido dal 03 a 18 ore il 04 a 18 ore UTC


031700Z 0318/0418 VRB03KT 9999 SCT025
BECMG 0320/0322 FEW010 BKN025 BKN070
TEMPO 0402/0418 7000 RA
BECMG 0404/0406 06015KT
PROB30
TEMPO 0412/0418 4000 SHRA SCT010 FEW018TCU BKN025 OVC070



MetMap, La meteo Aeronautica in un colpo d'occhio ! - Copyright ORBIFLY Dicembre 2007 - Disclaimer

ORBIFLY MET'MAP TEAM :

Programmazione e sviluppo : Alexandra Zaïnal
Concezione : Baudouin d'Aumeries
Aiuto per la programmazione : Marc-Olivier Méhu
Supporto tecnico e logistico : Manuel Goepfert
Aiuto per la traduzione : Arnaldo La Scala

Contatto : metmap@orbifly.com




FONTI E CREDITI :

   NOAA